Time;durP1;ratioP1;P1;durP2;ratioP2;P2;SDS_P1;SDS_P2;PMS_P1;PMS_P2;Temp;Humidity;BMP_temperature;BMP_pressure;BME280_temperature;BME280_humidity;BME280_pressure;Samples;Min_cycle;Max_cycle;Signal;HPM_P1;HPM_P2
2021/07/29 00:01:16;;;;;;;5.57;2.13;;;;;;;15.33;100.00;99866.47;5015277;28;20068;-84
2021/07/29 00:03:41;;;;;;;6.05;1.75;;;;;;;15.34;100.00;99862.94;5015113;28;20014;-84
2021/07/29 00:06:12;;;;;;;5.88;1.73;;;;;;;15.31;100.00;99867.47;5014978;28;20030;-84
2021/07/29 00:08:37;;;;;;;5.88;1.70;;;;;;;15.37;100.00;99868.00;5014996;28;20508;-83
2021/07/29 00:11:02;;;;;;;4.78;2.00;;;;;;;15.38;100.00;99859.25;5015492;28;20061;-83
2021/07/29 00:13:28;;;;;;;8.80;2.28;;;;;;;15.35;100.00;99859.38;5016367;28;20382;-83
2021/07/29 00:15:53;;;;;;;4.88;1.95;;;;;;;15.33;100.00;99856.03;5015568;28;20194;-84
2021/07/29 00:20:44;;;;;;;5.95;1.70;;;;;;;15.19;100.00;99854.06;5016403;28;20529;-84
2021/07/29 00:23:09;;;;;;;6.10;1.75;;;;;;;15.24;100.00;99847.78;5015825;28;20097;-84
2021/07/29 00:25:34;;;;;;;5.63;2.15;;;;;;;15.14;100.00;99850.81;5014822;28;20029;-84
2021/07/29 00:28:00;;;;;;;9.00;2.00;;;;;;;15.19;100.00;99842.78;5016095;28;20037;-84
2021/07/29 00:30:26;;;;;;;6.45;2.08;;;;;;;15.18;100.00;99835.88;5014892;28;20394;-84
2021/07/29 00:32:52;;;;;;;5.57;2.30;;;;;;;15.22;100.00;99840.03;5015849;28;20033;-84
2021/07/29 00:35:18;;;;;;;6.60;2.10;;;;;;;15.16;100.00;99840.31;5014574;28;20037;-84
2021/07/29 00:37:49;;;;;;;8.27;2.10;;;;;;;15.22;100.00;99841.78;5014662;28;20018;-84
2021/07/29 00:40:16;;;;;;;8.45;2.58;;;;;;;15.14;100.00;99834.31;5014802;28;20060;-84
2021/07/29 00:42:41;;;;;;;5.75;1.90;;;;;;;15.11;100.00;99832.69;5014709;28;20033;-84
2021/07/29 00:45:07;;;;;;;11.50;2.00;;;;;;;15.01;100.00;99830.63;5014968;28;20033;-84
2021/07/29 00:47:33;;;;;;;7.60;1.80;;;;;;;15.10;100.00;99822.34;5014775;28;20026;-84
2021/07/29 00:49:58;;;;;;;7.53;2.90;;;;;;;14.98;100.00;99822.94;5014907;28;20045;-84
2021/07/29 00:52:24;;;;;;;5.57;2.00;;;;;;;14.89;100.00;99813.75;5015285;28;20048;-84
2021/07/29 00:54:50;;;;;;;7.40;1.92;;;;;;;14.96;100.00;99816.03;5016204;28;20022;-84
2021/07/29 00:57:16;;;;;;;7.05;2.10;;;;;;;15.02;100.00;99814.84;5017550;28;20025;-83
2021/07/29 00:59:41;;;;;;;5.53;1.95;;;;;;;14.87;100.00;99816.47;5014953;28;20474;-84
2021/07/29 01:02:08;;;;;;;6.80;1.80;;;;;;;14.79;100.00;99813.38;5014300;28;20018;-84
2021/07/29 01:04:33;;;;;;;8.35;1.90;;;;;;;14.81;100.00;99810.66;5015468;28;20077;-84
2021/07/29 01:06:58;;;;;;;9.40;2.13;;;;;;;14.83;100.00;99806.22;5014152;28;20064;-84
2021/07/29 01:09:24;;;;;;;4.68;1.85;;;;;;;14.85;100.00;99802.63;5014165;28;20029;-84
2021/07/29 01:11:49;;;;;;;7.40;2.08;;;;;;;14.83;100.00;99801.84;5014476;28;20084;-83
2021/07/29 01:14:15;;;;;;;8.25;2.00;;;;;;;14.87;100.00;99805.16;5015557;28;20080;-84
2021/07/29 01:16:41;;;;;;;6.80;2.35;;;;;;;14.95;100.00;99797.81;5014550;28;20482;-84
2021/07/29 01:19:07;;;;;;;5.35;1.70;;;;;;;14.94;100.00;99798.72;5015232;28;20037;-83
2021/07/29 01:21:33;;;;;;;6.63;2.10;;;;;;;15.04;100.00;99794.75;5013441;28;20029;-84
2021/07/29 01:23:58;;;;;;;6.80;2.00;;;;;;;15.04;100.00;99793.91;5014122;28;20026;-83
2021/07/29 01:26:25;;;;;;;5.68;1.98;;;;;;;15.02;100.00;99795.72;5014280;28;20030;-84
2021/07/29 01:28:50;;;;;;;7.65;2.03;;;;;;;14.94;100.00;99789.13;5015082;28;20390;-83
2021/07/29 01:31:16;;;;;;;7.63;1.92;;;;;;;14.96;100.00;99781.22;5015673;28;20028;-83
2021/07/29 01:33:43;;;;;;;5.82;2.13;;;;;;;14.90;100.00;99779.75;5014309;28;20029;-83
2021/07/29 01:36:08;;;;;;;9.90;2.10;;;;;;;14.82;100.00;99771.44;5014169;28;20107;-84
2021/07/29 01:38:34;;;;;;;7.80;1.85;;;;;;;14.80;100.00;99762.00;5014126;28;20021;-84
2021/07/29 01:41:01;;;;;;;7.97;2.90;;;;;;;14.80;100.00;99767.22;5013599;28;20030;-84
2021/07/29 01:43:27;;;;;;;5.60;2.15;;;;;;;14.68;100.00;99761.66;5013606;28;20025;-84
2021/07/29 01:45:52;;;;;;;5.90;2.20;;;;;;;14.62;100.00;99766.31;5013691;28;20029;-84
2021/07/29 01:48:17;;;;;;;5.85;2.10;;;;;;;14.64;100.00;99764.50;5013497;28;20058;-84
2021/07/29 01:50:45;;;;;;;6.07;2.03;;;;;;;14.57;100.00;99750.91;5013527;28;20034;-84
2021/07/29 01:53:11;;;;;;;5.63;1.95;;;;;;;14.53;100.00;99758.94;5013199;28;20026;-84
2021/07/29 01:55:43;;;;;;;6.05;2.38;;;;;;;14.47;100.00;99757.41;5013565;28;20025;-84
2021/07/29 01:58:09;;;;;;;7.03;1.90;;;;;;;14.43;100.00;99763.72;5013832;28;20029;-84
2021/07/29 02:00:35;;;;;;;6.03;2.05;;;;;;;14.35;100.00;99761.47;5013250;28;20493;-84
2021/07/29 02:03:02;;;;;;;4.90;1.98;;;;;;;14.31;100.00;99762.50;5013117;28;20033;-84
2021/07/29 02:05:28;;;;;;;6.05;2.47;;;;;;;14.40;100.00;99764.69;5013045;28;20026;-84
2021/07/29 02:07:53;;;;;;;9.38;2.20;;;;;;;14.35;100.00;99761.47;5013086;28;20121;-84
2021/07/29 02:10:18;;;;;;;4.43;1.88;;;;;;;14.45;100.00;99752.28;5013095;28;20498;-84
2021/07/29 02:12:43;;;;;;;5.97;2.17;;;;;;;14.54;100.00;99755.44;5012808;28;20022;-84
2021/07/29 02:15:09;;;;;;;5.68;2.03;;;;;;;14.72;100.00;99757.16;5012912;28;20034;-84
2021/07/29 02:17:35;;;;;;;8.35;2.40;;;;;;;14.69;100.00;99752.09;5012978;28;20025;-84
2021/07/29 02:20:00;;;;;;;7.28;2.20;;;;;;;14.84;100.00;99756.56;5012836;28;20116;-84
2021/07/29 02:22:25;;;;;;;6.43;2.15;;;;;;;14.87;100.00;99756.41;5012704;28;20030;-83
2021/07/29 02:24:51;;;;;;;4.50;1.90;;;;;;;14.89;100.00;99762.38;5012796;28;20030;-84
2021/07/29 02:27:16;;;;;;;5.63;2.00;;;;;;;14.98;100.00;99739.38;5012889;28;20081;-84
2021/07/29 02:29:42;;;;;;;6.00;2.22;;;;;;;14.99;100.00;99751.50;5013918;28;20033;-83
2021/07/29 02:32:07;;;;;;;6.10;2.20;;;;;;;15.03;100.00;99747.81;5011993;28;20037;-84
2021/07/29 02:34:33;;;;;;;6.35;2.30;;;;;;;15.01;100.00;99754.88;5012732;28;20482;-84
2021/07/29 02:36:58;;;;;;;8.90;2.30;;;;;;;15.01;100.00;99740.06;5013519;28;20056;-84
2021/07/29 02:39:23;;;;;;;5.07;1.95;;;;;;;15.01;100.00;99745.28;5012542;28;20505;-84
2021/07/29 02:41:48;;;;;;;12.65;2.42;;;;;;;15.08;100.00;99746.66;5012461;28;20017;-84
2021/07/29 02:44:15;;;;;;;8.27;2.45;;;;;;;15.09;100.00;99744.91;5013883;28;20033;-84
2021/07/29 02:46:40;;;;;;;6.38;2.08;;;;;;;15.07;100.00;99736.28;5012454;28;20038;-84
2021/07/29 02:49:06;;;;;;;5.03;1.90;;;;;;;15.08;100.00;99741.44;5013304;28;20437;-84
2021/07/29 02:51:31;;;;;;;5.90;2.15;;;;;;;15.11;100.00;99728.22;5012368;28;20497;-84
2021/07/29 02:53:56;;;;;;;7.38;1.67;;;;;;;15.04;100.00;99723.38;5012458;28;20055;-84
2021/07/29 02:56:21;;;;;;;6.15;2.15;;;;;;;15.00;100.00;99727.09;5012305;28;20026;-84
2021/07/29 02:58:47;;;;;;;4.90;1.90;;;;;;;15.11;100.00;99725.59;5012259;28;20032;-84
2021/07/29 03:01:14;;;;;;;6.07;2.30;;;;;;;15.07;100.00;99729.31;5012756;28;20525;-84
2021/07/29 03:03:40;;;;;;;8.98;1.90;;;;;;;15.12;100.00;99742.16;5012563;28;20018;-84
2021/07/29 03:06:05;;;;;;;5.65;2.05;;;;;;;15.18;100.00;99731.38;5012244;28;20033;-84
2021/07/29 03:08:31;;;;;;;6.80;2.83;;;;;;;15.27;100.00;99730.06;5013198;28;20037;-84
2021/07/29 03:10:58;;;;;;;8.95;2.10;;;;;;;15.27;100.00;99735.28;5012229;28;20037;-84
2021/07/29 03:13:24;;;;;;;6.88;1.92;;;;;;;15.34;100.00;99729.69;5012721;28;20022;-84
2021/07/29 03:15:49;;;;;;;7.38;2.50;;;;;;;15.38;100.00;99732.97;5012563;28;20540;-84
2021/07/29 03:18:14;;;;;;;6.60;2.38;;;;;;;15.36;100.00;99730.44;5012497;28;20025;-84
2021/07/29 03:20:41;;;;;;;4.50;1.80;;;;;;;15.37;100.00;99723.44;5013398;28;20084;-84
2021/07/29 03:23:07;;;;;;;5.20;2.00;;;;;;;15.36;100.00;99725.22;5013426;28;20490;-84
2021/07/29 03:25:33;;;;;;;6.28;2.00;;;;;;;15.39;100.00;99722.47;5012766;28;20041;-84
2021/07/29 03:27:59;;;;;;;7.35;2.30;;;;;;;15.36;100.00;99719.13;5013415;28;20021;-84
2021/07/29 03:30:24;;;;;;;6.20;1.80;;;;;;;15.42;100.00;99719.69;5012282;28;20393;-84
2021/07/29 03:32:50;;;;;;;5.68;1.90;;;;;;;15.43;100.00;99731.81;5012447;28;20374;-84
2021/07/29 03:35:15;;;;;;;5.93;1.88;;;;;;;15.42;100.00;99740.59;5012164;28;20109;-84
2021/07/29 03:37:40;;;;;;;5.32;1.73;;;;;;;15.40;100.00;99737.19;5012525;28;20030;-84
2021/07/29 03:40:06;;;;;;;7.85;1.90;;;;;;;15.40;100.00;99734.59;5012279;28;20490;-84
2021/07/29 03:42:33;;;;;;;5.05;2.00;;;;;;;15.36;100.00;99738.28;5012100;28;20406;-84
2021/07/29 03:44:59;;;;;;;6.38;1.77;;;;;;;15.35;100.00;99733.13;5015940;28;20033;-84
2021/07/29 03:47:24;;;;;;;9.30;2.00;;;;;;;15.35;100.00;99733.13;5018233;28;20430;-84
2021/07/29 03:49:50;;;;;;;6.35;1.88;;;;;;;15.36;100.00;99725.22;5015691;28;20029;-84
2021/07/29 03:52:15;;;;;;;6.07;2.00;;;;;;;15.41;100.00;99727.59;5016296;28;20018;-84
2021/07/29 03:54:40;;;;;;;5.55;1.60;;;;;;;15.38;100.00;99740.81;5015735;28;20022;-84
2021/07/29 03:57:08;;;;;;;5.30;2.00;;;;;;;15.38;100.00;99740.81;5015593;28;20116;-84
2021/07/29 03:59:36;;;;;;;5.32;2.17;;;;;;;15.29;100.00;99739.50;5015775;28;20052;-84
2021/07/29 04:02:07;;;;;;;5.13;2.00;;;;;;;15.30;100.00;99737.72;5015500;28;20022;-85
2021/07/29 04:04:33;;;;;;;6.00;2.00;;;;;;;15.27;100.00;99740.50;5016578;28;20026;-84
2021/07/29 04:06:58;;;;;;;5.07;2.15;;;;;;;15.27;100.00;99738.75;5015290;28;20030;-85
2021/07/29 04:09:23;;;;;;;8.70;2.50;;;;;;;15.24;100.00;99733.69;5015484;28;20040;-84
2021/07/29 04:11:48;;;;;;;5.95;2.25;;;;;;;15.23;100.00;99738.97;5015401;28;20021;-84
2021/07/29 04:14:14;;;;;;;5.55;1.60;;;;;;;15.26;100.00;99744.88;5015565;28;20445;-84
2021/07/29 04:16:39;;;;;;;9.63;1.98;;;;;;;15.33;100.00;99748.91;5015462;28;20026;-84
2021/07/29 04:19:04;;;;;;;6.78;2.22;;;;;;;15.33;100.00;99743.69;5015343;28;20033;-84
2021/07/29 04:21:30;;;;;;;7.35;2.28;;;;;;;15.38;100.00;99743.44;5015012;28;20088;-84
2021/07/29 04:23:55;;;;;;;5.57;2.22;;;;;;;15.43;100.00;99750.13;5015064;28;20026;-85
2021/07/29 04:26:20;;;;;;;4.63;1.77;;;;;;;15.40;100.00;99752.88;5015299;28;20037;-84
2021/07/29 04:28:45;;;;;;;5.95;2.10;;;;;;;15.29;100.00;99757.78;5015384;28;20153;-84
2021/07/29 04:31:11;;;;;;;6.82;2.45;;;;;;;15.36;100.00;99746.13;5015025;28;20032;-85
2021/07/29 04:33:36;;;;;;;6.00;1.88;;;;;;;15.49;100.00;99759.41;5014827;28;20034;-85
2021/07/29 04:36:05;;;;;;;4.90;1.83;;;;;;;15.51;100.00;99759.31;5015132;28;20474;-84
2021/07/29 04:38:30;;;;;;;6.32;2.28;;;;;;;15.44;100.00;99756.19;5015026;28;20024;-85
2021/07/29 04:41:03;;;;;;;6.82;2.30;;;;;;;15.42;100.00;99751.03;5014899;28;20026;-84
2021/07/29 04:43:28;;;;;;;7.32;1.92;;;;;;;15.32;100.00;99749.81;5014821;28;20022;-84
2021/07/29 04:45:54;;;;;;;6.25;2.40;;;;;;;15.26;100.00;99744.88;5014795;28;20057;-84
2021/07/29 04:48:19;;;;;;;7.55;2.63;;;;;;;15.28;100.00;99747.44;5014711;28;20030;-85
2021/07/29 04:50:44;;;;;;;8.35;2.08;;;;;;;15.29;100.00;99739.50;5014570;28;20394;-85
2021/07/29 04:53:09;;;;;;;5.82;2.45;;;;;;;15.35;100.00;99747.03;5014569;28;20018;-84
2021/07/29 04:55:36;;;;;;;7.53;2.13;;;;;;;15.37;100.00;99747.81;5013674;28;20072;-84
2021/07/29 04:58:03;;;;;;;5.80;1.80;;;;;;;15.28;100.00;99750.91;5014413;28;20028;-84
2021/07/29 05:00:29;;;;;;;6.68;2.13;;;;;;;15.19;100.00;99753.97;5014529;28;20052;-84
2021/07/29 05:02:55;;;;;;;4.70;2.10;;;;;;;15.21;100.00;99757.34;5014447;28;20018;-85
2021/07/29 05:05:20;;;;;;;8.10;2.00;;;;;;;15.29;100.00;99742.13;5014380;28;20521;-85
2021/07/29 05:07:49;;;;;;;8.30;2.40;;;;;;;15.38;100.00;99751.25;5014513;28;20038;-84
2021/07/29 05:10:14;;;;;;;6.07;2.30;;;;;;;15.41;100.00;99754.56;5014151;28;20034;-84
2021/07/29 05:12:39;;;;;;;7.90;2.35;;;;;;;15.49;100.00;99748.97;5014089;28;20025;-84
2021/07/29 05:15:05;;;;;;;9.35;2.38;;;;;;;15.63;100.00;99745.63;5014892;28;20025;-85
2021/07/29 05:17:30;;;;;;;6.75;2.10;;;;;;;15.63;100.00;99735.16;5014589;28;20025;-84
2021/07/29 05:19:55;;;;;;;8.60;2.47;;;;;;;15.81;99.37;99736.00;5014326;28;20036;-84
2021/07/29 05:22:21;;;;;;;7.40;2.20;;;;;;;16.34;98.12;99737.47;5013756;28;20025;-85
2021/07/29 05:24:46;;;;;;;5.63;2.10;;;;;;;16.76;95.03;99726.41;5076461;22;20069;-90
2021/07/29 05:27:11;;;;;;;7.35;2.20;;;;;;;17.15;91.94;99730.28;5020979;28;20033;-90
2021/07/29 05:29:37;;;;;;;4.50;2.10;;;;;;;17.26;90.10;99740.13;5020306;28;20410;-89
2021/07/29 05:32:02;;;;;;;5.47;2.25;;;;;;;17.54;89.09;99731.44;5017857;28;20075;-90
2021/07/29 05:34:28;;;;;;;9.98;1.98;;;;;;;17.67;88.93;99734.16;5015682;28;20018;-90
2021/07/29 05:36:54;;;;;;;6.50;2.10;;;;;;;17.62;86.36;99731.00;5016679;28;20041;-90
2021/07/29 05:39:19;;;;;;;8.38;2.10;;;;;;;17.75;83.55;99731.94;5019762;28;20538;-90
2021/07/29 05:41:45;;;;;;;5.00;1.85;;;;;;;18.72;80.11;99737.22;5021045;28;20022;-90
2021/07/29 05:44:12;;;;;;;7.18;2.15;;;;;;;18.28;80.19;99730.38;5019118;28;20037;-89
2021/07/29 05:46:37;;;;;;;6.13;2.08;;;;;;;18.13;81.36;99729.59;5016488;28;20032;-90
2021/07/29 05:49:03;;;;;;;7.97;2.17;;;;;;;18.25;78.88;99714.00;5016131;28;20029;-90
2021/07/29 05:51:28;;;;;;;5.60;1.75;;;;;;;18.45;78.38;99728.50;5016443;28;20470;-89
2021/07/29 05:53:54;;;;;;;5.70;1.80;;;;;;;18.42;77.16;99720.81;5014568;28;20033;-90
2021/07/29 05:56:19;;;;;;;7.28;1.90;;;;;;;18.42;75.49;99724.28;5014302;28;20089;-90
2021/07/29 05:58:44;;;;;;;5.93;1.63;;;;;;;18.46;77.21;99723.13;5013672;28;20025;-90
2021/07/29 06:01:09;;;;;;;7.70;2.10;;;;;;;18.82;76.20;99729.59;5013402;28;20022;-90
2021/07/29 06:03:35;;;;;;;7.68;2.30;;;;;;;19.07;74.62;99723.56;5013047;28;20477;-90
2021/07/29 06:06:00;;;;;;;8.40;1.83;;;;;;;18.53;76.13;99732.28;5013352;28;20116;-90
2021/07/29 06:08:25;;;;;;;7.18;1.95;;;;;;;18.66;76.59;99737.63;5012756;28;20022;-89
2021/07/29 06:10:51;;;;;;;9.52;1.65;;;;;;;18.88;75.11;99731.00;5013843;28;20021;-90
2021/07/29 06:13:16;;;;;;;6.55;2.13;;;;;;;19.23;73.70;99728.63;5013069;28;20109;-89
2021/07/29 06:15:42;;;;;;;5.63;1.80;;;;;;;18.99;75.46;99738.97;5013056;28;20049;-90
2021/07/29 06:18:10;;;;;;;8.43;1.80;;;;;;;19.39;72.92;99734.50;5014331;28;20026;-90
2021/07/29 06:20:36;;;;;;;5.60;1.67;;;;;;;19.60;70.52;99726.94;5014073;28;20108;-90
2021/07/29 06:23:01;;;;;;;8.05;1.70;;;;;;;19.80;71.73;99730.88;5013004;28;20427;-90
2021/07/29 06:25:27;;;;;;;9.63;2.00;;;;;;;19.59;71.30;99730.53;5013149;28;20080;-90
2021/07/29 06:27:52;;;;;;;6.93;2.40;;;;;;;19.07;72.99;99740.16;5013166;28;20482;-90
2021/07/29 06:30:18;;;;;;;7.72;2.40;;;;;;;19.72;71.06;99730.56;5013369;28;20121;-90
2021/07/29 06:32:43;;;;;;;7.85;1.88;;;;;;;20.34;66.12;99727.06;5013691;28;20022;-90
2021/07/29 06:35:09;;;;;;;9.82;2.58;;;;;;;18.74;72.92;99740.59;5013627;28;20029;-90
2021/07/29 06:37:34;;;;;;;6.22;2.08;;;;;;;19.21;71.87;99731.38;5012789;28;20431;-90
2021/07/29 06:40:00;;;;;;;8.52;2.40;;;;;;;19.71;70.45;99734.16;5012983;28;20022;-90
2021/07/29 06:42:25;;;;;;;4.78;1.60;;;;;;;20.44;66.50;99734.19;5012646;28;20053;-90
2021/07/29 06:44:51;;;;;;;7.55;1.95;;;;;;;19.91;68.01;99738.84;5013512;28;20025;-90
2021/07/29 06:47:19;;;;;;;10.65;2.17;;;;;;;20.38;67.92;99745.19;5013029;28;20025;-89
2021/07/29 06:49:44;;;;;;;7.28;2.30;;;;;;;19.78;66.49;99740.66;5013418;28;20056;-90
2021/07/29 06:52:11;;;;;;;6.03;1.65;;;;;;;20.70;65.65;99739.38;5013130;28;20478;-89
2021/07/29 06:54:37;;;;;;;5.35;1.50;;;;;;;19.65;68.56;99739.84;5012498;28;20041;-89
2021/07/29 06:57:02;;;;;;;14.32;2.03;;;;;;;19.49;69.12;99748.75;5012467;28;20033;-89
2021/07/29 06:59:27;;;;;;;7.60;2.17;;;;;;;19.78;66.69;99738.03;5012426;28;20036;-89
2021/07/29 07:01:53;;;;;;;8.32;1.67;;;;;;;20.27;65.13;99739.84;5012338;28;20091;-89
2021/07/29 07:04:18;;;;;;;7.72;1.60;;;;;;;20.54;64.08;99739.66;5012262;28;20483;-89
2021/07/29 07:06:43;;;;;;;8.88;2.15;;;;;;;21.30;62.24;99743.66;5012315;28;20397;-89
2021/07/29 07:09:08;;;;;;;10.27;1.77;;;;;;;20.60;63.05;99738.38;5012244;28;20022;-89
2021/07/29 07:11:34;;;;;;;10.23;1.73;;;;;;;22.12;57.33;99742.66;5013023;28;20065;-90
2021/07/29 07:13:59;;;;;;;7.88;2.08;;;;;;;21.57;59.06;99753.09;5012289;28;20022;-89
2021/07/29 07:16:24;;;;;;;7.57;2.60;;;;;;;20.81;62.03;99755.25;5012121;28;20497;-89
2021/07/29 07:18:50;;;;;;;4.57;1.27;;;;;;;20.03;64.10;99754.72;5013585;28;20033;-89
2021/07/29 07:21:15;;;;;;;7.70;1.92;;;;;;;19.76;61.52;99760.97;5016094;28;20034;-89
2021/07/29 07:23:41;;;;;;;6.55;1.60;;;;;;;19.18;63.34;99755.25;5015786;28;20037;-89
2021/07/29 07:26:23;;;;;;;7.10;1.88;;;;;;;18.79;66.84;99759.53;5016208;28;20029;-89
2021/07/29 07:28:50;;;;;;;8.18;2.35;;;;;;;19.99;62.42;99749.69;5016476;28;20120;-90
2021/07/29 07:31:18;;;;;;;7.13;1.33;;;;;;;19.81;63.01;99761.50;5016712;28;20109;-90
2021/07/29 07:33:45;;;;;;;7.28;1.75;;;;;;;19.49;63.52;99758.44;5017235;28;20022;-89
2021/07/29 07:36:10;;;;;;;5.97;1.40;;;;;;;19.04;64.29;99758.75;5018949;28;20021;-90
2021/07/29 07:38:36;;;;;;;10.00;2.08;;;;;;;19.98;63.39;99753.28;5017749;28;20018;-89
2021/07/29 07:41:06;;;;;;;4.80;1.60;;;;;;;19.41;64.78;99748.41;5017647;28;20021;-89
2021/07/29 07:43:31;;;;;;;5.43;1.50;;;;;;;18.79;68.50;99762.16;5018643;28;20025;-87
2021/07/29 07:45:56;;;;;;;8.07;1.70;;;;;;;19.28;65.94;99764.19;5016058;28;20052;-87
2021/07/29 07:48:22;;;;;;;5.85;1.45;;;;;;;18.83;68.89;99770.69;5015895;28;20107;-87
2021/07/29 07:50:47;;;;;;;9.20;1.75;;;;;;;18.04;73.04;99768.66;5016656;28;20064;-89
2021/07/29 07:53:13;;;;;;;11.20;1.70;;;;;;;17.74;77.35;99768.75;5018343;28;20065;-90
2021/07/29 07:55:38;;;;;;;8.43;2.35;;;;;;;17.42;80.79;99766.25;5017711;28;20073;-90
2021/07/29 07:58:03;;;;;;;7.85;2.08;;;;;;;19.10;72.78;99768.03;5016045;28;20038;-89
2021/07/29 08:00:29;;;;;;;6.45;1.60;;;;;;;19.98;69.93;99757.69;5016504;28;20029;-90
2021/07/29 08:02:54;;;;;;;10.82;2.75;;;;;;;18.83;74.88;99770.69;5017786;28;20084;-90
2021/07/29 08:05:20;;;;;;;7.13;1.65;;;;;;;18.19;76.73;99770.34;5017975;28;20126;-89
2021/07/29 08:07:45;;;;;;;8.73;1.70;;;;;;;18.51;72.22;99765.69;5015906;28;20434;-91
2021/07/29 08:10:11;;;;;;;7.85;1.85;;;;;;;18.60;70.28;99778.25;5015246;28;20022;-90
2021/07/29 08:12:37;;;;;;;6.85;2.10;;;;;;;19.40;70.26;99770.41;5015209;28;20049;-91
2021/07/29 08:15:03;;;;;;;8.15;1.52;;;;;;;21.38;63.93;99766.84;5014929;28;20018;-91
2021/07/29 08:17:28;;;;;;;7.13;1.95;;;;;;;21.36;58.65;99759.03;5015108;28;20504;-91
2021/07/29 08:19:53;;;;;;;5.35;1.38;;;;;;;20.59;59.13;99752.50;5015115;28;20493;-91
2021/07/29 08:22:19;;;;;;;7.32;1.58;;;;;;;19.48;63.99;99754.09;5014590;28;20116;-90
2021/07/29 08:24:44;;;;;;;7.30;1.95;;;;;;;20.13;62.65;99766.28;5014873;28;20121;-90
2021/07/29 08:27:10;;;;;;;8.02;1.50;;;;;;;19.12;66.84;99765.28;5014719;28;20022;-90
2021/07/29 08:29:35;;;;;;;6.60;1.20;;;;;;;19.14;63.50;99768.66;5014682;28;20030;-89
2021/07/29 08:32:00;;;;;;;6.00;1.58;;;;;;;20.93;58.73;99753.47;5015096;28;20021;-88
2021/07/29 08:34:26;;;;;;;8.20;1.52;;;;;;;20.76;57.02;99756.53;5015718;28;20083;-88
2021/07/29 08:54:49;;;;;;;7.18;1.40;;;;;;;21.63;51.96;99768.47;4923507;29;20047;-88
2021/07/29 09:01:13;;;;;;;8.70;1.50;;;;;;;22.35;51.45;99762.00;4839155;29;20571;-88
2021/07/29 09:03:40;;;;;;;5.97;1.63;;;;;;;22.77;46.58;99759.50;4860789;29;20038;-88
2021/07/29 09:06:23;;;;;;;7.20;1.30;;;;;;;20.54;51.12;99771.28;4892275;29;20052;-88
2021/07/29 09:09:33;;;;;;;6.38;1.17;;;;;;;20.26;53.23;99766.25;4901260;29;20040;-87
2021/07/29 09:12:30;;;;;;;7.82;1.00;;;;;;;20.15;52.64;99770.50;4890066;29;20052;-88
2021/07/29 09:18:33;;;;;;;5.05;1.00;;;;;;;18.98;58.13;99784.63;4916357;29;20036;-88
2021/07/29 09:21:15;;;;;;;6.03;1.20;;;;;;;20.32;55.27;99777.22;4939654;28;20034;-88
2021/07/29 09:27:02;;;;;;;5.65;1.50;;;;;;;23.40;48.98;99782.44;4995923;28;20594;-88
2021/07/29 09:29:29;;;;;;;10.00;1.70;;;;;;;21.46;52.28;99772.41;4977511;28;20142;-88
2021/07/29 09:32:11;;;;;;;10.90;1.45;;;;;;;20.36;54.55;99777.84;4995093;28;20033;-88
2021/07/29 09:34:47;;;;;;;4.90;1.08;;;;;;;23.28;48.79;99783.47;4978485;28;20057;-88
2021/07/29 09:37:14;;;;;;;8.43;1.38;;;;;;;22.08;48.39;99763.22;4994486;28;20030;-88
2021/07/29 09:39:39;;;;;;;6.75;1.38;;;;;;;21.22;54.36;99767.16;4977698;28;20018;-88
2021/07/29 09:42:20;;;;;;;7.57;1.60;;;;;;;20.69;53.84;99769.34;4976932;28;20029;-88
2021/07/29 09:44:48;;;;;;;5.97;1.27;;;;;;;20.75;51.91;99762.75;4994820;28;20034;-88
2021/07/29 09:47:14;;;;;;;13.13;1.52;;;;;;;22.91;46.34;99786.47;4993693;28;20432;-87
2021/07/29 09:49:40;;;;;;;10.88;1.50;;;;;;;23.79;44.23;99766.78;4993757;28;20143;-87
2021/07/29 09:52:05;;;;;;;7.18;1.02;;;;;;;24.46;44.10;99762.72;4979113;28;20068;-88
2021/07/29 09:54:31;;;;;;;6.32;1.00;;;;;;;22.76;46.00;99774.53;4977763;28;20081;-88
2021/07/29 09:56:56;;;;;;;3.75;1.00;;;;;;;21.96;48.62;99788.78;4977211;28;20096;-87
2021/07/29 09:59:22;;;;;;;8.75;1.58;;;;;;;20.47;51.07;99788.44;4993602;28;20029;-87
2021/07/29 10:01:50;;;;;;;4.93;1.00;;;;;;;19.99;51.30;99791.81;4993689;28;20033;-87
2021/07/29 10:04:17;;;;;;;8.77;1.10;;;;;;;21.70;47.65;99780.22;4993000;28;20281;-87
2021/07/29 10:06:46;;;;;;;7.43;1.38;;;;;;;23.30;44.42;99785.97;4993776;28;20022;-87
2021/07/29 10:09:14;;;;;;;5.63;1.23;;;;;;;23.78;42.49;99793.41;4993190;28;20022;-87
2021/07/29 10:11:44;;;;;;;6.88;1.20;;;;;;;22.65;45.30;99785.94;4976909;28;20026;-86
2021/07/29 10:14:10;;;;;;;8.52;1.25;;;;;;;23.64;44.22;99768.91;4993227;28;20018;-86
2021/07/29 10:16:45;;;;;;;4.93;1.08;;;;;;;23.84;42.80;99775.19;4993927;28;20022;-87
2021/07/29 10:19:11;;;;;;;9.77;1.33;;;;;;;22.09;48.12;99777.25;4976893;28;20018;-86
2021/07/29 10:21:38;;;;;;;6.43;1.13;;;;;;;20.85;51.22;99777.78;4994178;28;20462;-86
2021/07/29 10:24:05;;;;;;;7.72;1.38;;;;;;;21.56;50.56;99785.72;4994309;28;20022;-87
2021/07/29 10:26:38;;;;;;;9.02;1.20;;;;;;;21.27;50.35;99788.72;4977952;28;20026;-87
2021/07/29 10:29:18;;;;;;;6.23;1.07;;;;;;;20.29;50.50;99787.97;4993422;28;20026;-85
2021/07/29 10:31:52;;;;;;;5.50;1.00;;;;;;;19.67;51.74;99790.53;4992855;28;20414;-85
2021/07/29 10:34:31;;;;;;;7.15;1.23;;;;;;;19.82;51.95;99804.44;4994017;28;20022;-85
2021/07/29 10:37:00;;;;;;;9.10;1.20;;;;;;;20.10;52.28;99795.47;4992840;28;20473;-85
2021/07/29 10:39:27;;;;;;;8.85;1.30;;;;;;;19.83;53.33;99796.47;4976730;28;20073;-85
2021/07/29 10:41:53;;;;;;;5.80;1.38;;;;;;;19.96;53.22;99801.72;4976916;28;20128;-85
2021/07/29 10:44:37;;;;;;;7.68;1.70;;;;;;;19.88;51.63;99804.00;4992456;28;20105;-85
2021/07/29 10:47:05;;;;;;;8.23;1.40;;;;;;;20.04;52.19;99803.78;4994133;28;20022;-85
2021/07/29 10:49:45;;;;;;;7.45;1.15;;;;;;;20.00;53.42;99796.09;4976865;28;20419;-85
2021/07/29 10:52:14;;;;;;;6.63;1.40;;;;;;;19.50;55.69;99795.13;4993291;28;20448;-85
2021/07/29 10:54:41;;;;;;;9.35;2.25;;;;;;;18.94;55.13;99796.28;4995994;28;20026;-84
2021/07/29 10:57:08;;;;;;;10.25;1.77;;;;;;;18.87;57.24;99806.31;4980733;28;20081;-84
2021/07/29 10:59:34;;;;;;;6.82;1.27;;;;;;;19.05;59.15;99806.91;4996639;28;20024;-85
2021/07/29 11:02:01;;;;;;;5.85;1.55;;;;;;;19.48;57.80;99810.16;4997753;28;20046;-85
2021/07/29 11:04:31;;;;;;;6.72;1.38;;;;;;;19.99;54.89;99807.59;4997791;28;20022;-85
2021/07/29 11:07:02;;;;;;;5.55;1.10;;;;;;;21.09;52.38;99792.72;4996800;28;20390;-85
2021/07/29 11:09:31;;;;;;;6.35;1.15;;;;;;;20.42;53.42;99794.03;4997788;28;20023;-85
2021/07/29 11:11:58;;;;;;;4.85;1.15;;;;;;;19.78;55.79;99788.88;4997779;28;20034;-85
2021/07/29 11:14:26;;;;;;;9.15;1.15;;;;;;;19.42;57.24;99799.22;4997743;28;20026;-85
2021/07/29 11:16:55;;;;;;;5.75;1.10;;;;;;;18.90;59.90;99803.50;4980099;28;20551;-86
2021/07/29 11:19:20;;;;;;;6.78;1.45;;;;;;;18.81;58.49;99814.59;4980213;28;20041;-86
2021/07/29 11:22:01;;;;;;;7.72;1.88;;;;;;;18.94;58.85;99823.41;4996733;28;20038;-85
2021/07/29 11:24:26;;;;;;;7.30;1.40;;;;;;;18.76;60.32;99825.41;5044325;22;20079;-84
2021/07/29 11:26:52;;;;;;;5.07;1.20;;;;;;;19.07;58.51;99819.03;5037339;28;20047;-84
2021/07/29 11:29:17;;;;;;;8.10;2.00;;;;;;;19.51;54.63;99823.09;5037569;28;20033;-84
2021/07/29 11:31:43;;;;;;;6.28;1.35;;;;;;;21.36;49.51;99811.81;5019959;28;20272;-84
2021/07/29 11:34:09;;;;;;;6.60;1.75;;;;;;;20.46;51.16;99805.19;5010447;28;20049;-83
2021/07/29 11:36:35;;;;;;;5.82;1.40;;;;;;;20.35;53.44;99815.66;5000287;28;20021;-83
2021/07/29 11:39:02;;;;;;;6.38;1.98;;;;;;;19.92;54.92;99814.25;5000915;28;20021;-83
2021/07/29 11:41:29;;;;;;;8.32;1.40;;;;;;;20.05;54.81;99816.03;5019040;28;20028;-83
2021/07/29 11:44:00;;;;;;;6.22;1.15;;;;;;;22.92;47.53;99803.19;5001944;28;20385;-83
2021/07/29 11:46:26;;;;;;;7.30;1.75;;;;;;;23.13;45.88;99795.31;5003441;28;20038;-83
2021/07/29 11:49:21;;;;;;;6.78;1.35;;;;;;;23.89;44.89;99793.31;5004823;28;20064;-83
2021/07/29 11:52:04;;;;;;;6.00;1.30;;;;;;;23.97;43.70;99779.44;4994414;28;20038;-82
2021/07/29 11:54:31;;;;;;;6.68;0.90;;;;;;;24.19;44.38;99783.69;5005857;28;20025;-83
2021/07/29 11:56:57;;;;;;;13.50;1.83;;;;;;;24.68;43.86;99784.69;5004791;28;20390;-83
2021/07/29 11:59:23;;;;;;;10.10;1.38;;;;;;;24.41;42.36;99787.94;5000449;28;20389;-83